sensor_id;sensor_type;location;lat;lon;timestamp;temperature;humidity
53520;DHT22;39397;53.204;5.778;2023-08-17T00:00:20;15.60;99.90
53520;DHT22;39397;53.204;5.778;2023-08-17T00:02:45;15.60;99.90
53520;DHT22;39397;53.204;5.778;2023-08-17T00:05:11;15.60;99.90
53520;DHT22;39397;53.204;5.778;2023-08-17T00:07:37;15.60;99.90
53520;DHT22;39397;53.204;5.778;2023-08-17T00:10:03;15.60;99.90
53520;DHT22;39397;53.204;5.778;2023-08-17T00:12:29;15.50;99.90
53520;DHT22;39397;53.204;5.778;2023-08-17T00:14:55;15.50;99.90
53520;DHT22;39397;53.204;5.778;2023-08-17T00:17:21;15.50;99.90
53520;DHT22;39397;53.204;5.778;2023-08-17T00:19:47;15.50;99.90
53520;DHT22;39397;53.204;5.778;2023-08-17T00:22:13;15.50;99.90
53520;DHT22;39397;53.204;5.778;2023-08-17T00:24:39;15.30;99.90
53520;DHT22;39397;53.204;5.778;2023-08-17T00:27:06;15.40;99.90
53520;DHT22;39397;53.204;5.778;2023-08-17T00:29:32;15.30;99.90
53520;DHT22;39397;53.204;5.778;2023-08-17T00:31:57;15.90;99.90
53520;DHT22;39397;53.204;5.778;2023-08-17T00:34:23;15.20;99.90
53520;DHT22;39397;53.204;5.778;2023-08-17T00:36:49;15.30;99.90
53520;DHT22;39397;53.204;5.778;2023-08-17T00:39:15;15.30;99.90
53520;DHT22;39397;53.204;5.778;2023-08-17T00:41:41;15.20;99.90
53520;DHT22;39397;53.204;5.778;2023-08-17T00:44:06;15.20;99.90
53520;DHT22;39397;53.204;5.778;2023-08-17T00:46:32;15.30;99.90
53520;DHT22;39397;53.204;5.778;2023-08-17T00:48:59;15.20;99.90
53520;DHT22;39397;53.204;5.778;2023-08-17T00:51:25;15.20;99.90
53520;DHT22;39397;53.204;5.778;2023-08-17T00:53:53;15.20;99.90
53520;DHT22;39397;53.204;5.778;2023-08-17T00:56:20;15.20;99.90
53520;DHT22;39397;53.204;5.778;2023-08-17T00:58:45;15.20;99.90
53520;DHT22;39397;53.204;5.778;2023-08-17T01:01:11;15.20;99.90
53520;DHT22;39397;53.204;5.778;2023-08-17T01:03:40;15.10;99.90
53520;DHT22;39397;53.204;5.778;2023-08-17T01:06:08;15.20;99.90
53520;DHT22;39397;53.204;5.778;2023-08-17T01:08:33;15.10;99.90
53520;DHT22;39397;53.204;5.778;2023-08-17T01:13:57;15.00;99.90
53520;DHT22;39397;53.204;5.778;2023-08-17T01:16:40;14.00;99.90
53520;DHT22;39397;53.204;5.778;2023-08-17T01:19:08;15.00;99.90
53520;DHT22;39397;53.204;5.778;2023-08-17T01:21:49;14.90;99.90
53520;DHT22;39397;53.204;5.778;2023-08-17T01:24:15;15.00;99.90
53520;DHT22;39397;53.204;5.778;2023-08-17T01:26:43;15.10;99.90
53520;DHT22;39397;53.204;5.778;2023-08-17T01:29:10;15.00;99.90
53520;DHT22;39397;53.204;5.778;2023-08-17T01:35:03;15.00;99.90
53520;DHT22;39397;53.204;5.778;2023-08-17T01:37:31;14.90;99.90
53520;DHT22;39397;53.204;5.778;2023-08-17T01:40:00;14.80;99.90
53520;DHT22;39397;53.204;5.778;2023-08-17T01:42:25;14.90;99.90
53520;DHT22;39397;53.204;5.778;2023-08-17T01:44:52;14.90;99.90
53520;DHT22;39397;53.204;5.778;2023-08-17T01:47:24;14.90;99.90
53520;DHT22;39397;53.204;5.778;2023-08-17T01:49:50;14.90;99.90
53520;DHT22;39397;53.204;5.778;2023-08-17T01:52:15;14.90;99.90
53520;DHT22;39397;53.204;5.778;2023-08-17T01:54:41;14.80;99.90
53520;DHT22;39397;53.204;5.778;2023-08-17T01:57:07;14.80;99.90
53520;DHT22;39397;53.204;5.778;2023-08-17T01:59:33;14.80;99.90
53520;DHT22;39397;53.204;5.778;2023-08-17T02:01:59;14.80;99.90
53520;DHT22;39397;53.204;5.778;2023-08-17T02:04:25;14.80;99.90
53520;DHT22;39397;53.204;5.778;2023-08-17T02:06:51;14.70;99.90
53520;DHT22;39397;53.204;5.778;2023-08-17T02:09:16;14.70;99.90
53520;DHT22;39397;53.204;5.778;2023-08-17T02:11:42;14.70;99.90
53520;DHT22;39397;53.204;5.778;2023-08-17T02:14:08;14.70;99.90
53520;DHT22;39397;53.204;5.778;2023-08-17T02:16:33;14.80;99.90
53520;DHT22;39397;53.204;5.778;2023-08-17T02:18:59;14.80;99.90
53520;DHT22;39397;53.204;5.778;2023-08-17T02:21:25;14.90;99.90
53520;DHT22;39397;53.204;5.778;2023-08-17T02:23:51;14.80;99.90
53520;DHT22;39397;53.204;5.778;2023-08-17T02:26:16;14.90;99.90
53520;DHT22;39397;53.204;5.778;2023-08-17T02:28:42;14.80;99.90
53520;DHT22;39397;53.204;5.778;2023-08-17T02:31:08;14.90;99.90
53520;DHT22;39397;53.204;5.778;2023-08-17T02:33:34;14.80;99.90
53520;DHT22;39397;53.204;5.778;2023-08-17T02:36:02;14.90;99.90
53520;DHT22;39397;53.204;5.778;2023-08-17T02:38:28;14.80;99.90
53520;DHT22;39397;53.204;5.778;2023-08-17T02:40:53;14.80;99.90
53520;DHT22;39397;53.204;5.778;2023-08-17T02:43:19;14.90;99.90
53520;DHT22;39397;53.204;5.778;2023-08-17T02:45:45;14.90;99.90
53520;DHT22;39397;53.204;5.778;2023-08-17T02:48:10;15.00;99.90
53520;DHT22;39397;53.204;5.778;2023-08-17T02:50:36;15.00;99.90
53520;DHT22;39397;53.204;5.778;2023-08-17T02:53:02;15.10;99.90
53520;DHT22;39397;53.204;5.778;2023-08-17T02:55:28;15.10;99.90
53520;DHT22;39397;53.204;5.778;2023-08-17T02:57:53;15.20;99.90
53520;DHT22;39397;53.204;5.778;2023-08-17T03:00:19;15.30;99.90
53520;DHT22;39397;53.204;5.778;2023-08-17T03:02:45;15.20;99.90
53520;DHT22;39397;53.204;5.778;2023-08-17T03:05:10;15.20;99.90
53520;DHT22;39397;53.204;5.778;2023-08-17T03:07:36;15.20;99.90
53520;DHT22;39397;53.204;5.778;2023-08-17T03:10:02;15.30;99.90
53520;DHT22;39397;53.204;5.778;2023-08-17T03:12:27;15.30;99.90
53520;DHT22;39397;53.204;5.778;2023-08-17T03:14:53;15.30;99.90
53520;DHT22;39397;53.204;5.778;2023-08-17T03:17:19;15.20;99.90
53520;DHT22;39397;53.204;5.778;2023-08-17T03:19:44;15.20;99.90
53520;DHT22;39397;53.204;5.778;2023-08-17T03:22:10;15.20;99.90
53520;DHT22;39397;53.204;5.778;2023-08-17T03:24:36;15.10;99.90
53520;DHT22;39397;53.204;5.778;2023-08-17T03:27:01;15.20;99.90
53520;DHT22;39397;53.204;5.778;2023-08-17T03:29:27;15.30;99.90
53520;DHT22;39397;53.204;5.778;2023-08-17T03:31:53;15.10;99.90
53520;DHT22;39397;53.204;5.778;2023-08-17T03:34:19;15.00;99.90
53520;DHT22;39397;53.204;5.778;2023-08-17T03:36:44;15.00;99.90
53520;DHT22;39397;53.204;5.778;2023-08-17T03:39:10;15.00;99.90
53520;DHT22;39397;53.204;5.778;2023-08-17T03:41:36;14.90;99.90
53520;DHT22;39397;53.204;5.778;2023-08-17T03:44:03;14.90;99.90
53520;DHT22;39397;53.204;5.778;2023-08-17T03:46:31;14.80;99.90
53520;DHT22;39397;53.204;5.778;2023-08-17T03:48:57;14.40;99.90
53520;DHT22;39397;53.204;5.778;2023-08-17T03:51:22;14.80;99.90
53520;DHT22;39397;53.204;5.778;2023-08-17T03:53:48;14.80;99.90
53520;DHT22;39397;53.204;5.778;2023-08-17T03:56:14;14.70;99.90
53520;DHT22;39397;53.204;5.778;2023-08-17T03:58:41;14.70;99.90
53520;DHT22;39397;53.204;5.778;2023-08-17T04:01:07;14.80;99.90
53520;DHT22;39397;53.204;5.778;2023-08-17T04:03:36;14.70;99.90
53520;DHT22;39397;53.204;5.778;2023-08-17T04:06:06;14.80;99.90
53520;DHT22;39397;53.204;5.778;2023-08-17T04:08:32;14.80;99.90
53520;DHT22;39397;53.204;5.778;2023-08-17T04:10:57;14.90;99.90
53520;DHT22;39397;53.204;5.778;2023-08-17T04:13:23;14.80;99.90
53520;DHT22;39397;53.204;5.778;2023-08-17T04:15:49;14.70;99.90
53520;DHT22;39397;53.204;5.778;2023-08-17T04:18:14;14.80;99.90
53520;DHT22;39397;53.204;5.778;2023-08-17T04:20:40;14.70;99.90
53520;DHT22;39397;53.204;5.778;2023-08-17T04:23:06;14.80;99.90
53520;DHT22;39397;53.204;5.778;2023-08-17T04:25:31;14.70;99.90
53520;DHT22;39397;53.204;5.778;2023-08-17T04:27:57;14.80;99.90
53520;DHT22;39397;53.204;5.778;2023-08-17T04:30:23;14.80;99.90
53520;DHT22;39397;53.204;5.778;2023-08-17T04:32:48;14.80;99.90
53520;DHT22;39397;53.204;5.778;2023-08-17T04:35:18;14.80;99.90
53520;DHT22;39397;53.204;5.778;2023-08-17T04:37:44;14.90;99.90
53520;DHT22;39397;53.204;5.778;2023-08-17T04:40:10;14.80;99.90
53520;DHT22;39397;53.204;5.778;2023-08-17T04:42:36;14.90;99.90
53520;DHT22;39397;53.204;5.778;2023-08-17T04:45:02;14.90;99.90
53520;DHT22;39397;53.204;5.778;2023-08-17T04:47:28;15.00;99.90
53520;DHT22;39397;53.204;5.778;2023-08-17T04:49:54;15.00;99.90
53520;DHT22;39397;53.204;5.778;2023-08-17T04:52:19;14.90;99.90
53520;DHT22;39397;53.204;5.778;2023-08-17T04:54:45;13.40;99.90
53520;DHT22;39397;53.204;5.778;2023-08-17T04:57:11;15.00;99.90
53520;DHT22;39397;53.204;5.778;2023-08-17T04:59:36;15.10;99.90
53520;DHT22;39397;53.204;5.778;2023-08-17T05:02:02;15.20;99.90
53520;DHT22;39397;53.204;5.778;2023-08-17T05:04:30;15.10;99.90
53520;DHT22;39397;53.204;5.778;2023-08-17T05:06:56;15.10;99.90
53520;DHT22;39397;53.204;5.778;2023-08-17T05:09:22;15.30;99.90
53520;DHT22;39397;53.204;5.778;2023-08-17T05:11:48;15.30;99.90
53520;DHT22;39397;53.204;5.778;2023-08-17T05:14:14;15.10;99.90
53520;DHT22;39397;53.204;5.778;2023-08-17T05:16:39;15.40;99.90
53520;DHT22;39397;53.204;5.778;2023-08-17T05:19:05;15.20;99.90
53520;DHT22;39397;53.204;5.778;2023-08-17T05:21:31;15.50;99.90
53520;DHT22;39397;53.204;5.778;2023-08-17T05:23:56;15.40;99.90
53520;DHT22;39397;53.204;5.778;2023-08-17T05:26:22;15.40;99.90
53520;DHT22;39397;53.204;5.778;2023-08-17T05:28:48;15.50;99.90
53520;DHT22;39397;53.204;5.778;2023-08-17T05:31:14;15.60;99.90
53520;DHT22;39397;53.204;5.778;2023-08-17T05:33:39;15.70;99.90
53520;DHT22;39397;53.204;5.778;2023-08-17T05:36:08;15.70;99.90
53520;DHT22;39397;53.204;5.778;2023-08-17T05:38:33;15.70;99.90
53520;DHT22;39397;53.204;5.778;2023-08-17T05:40:59;15.80;99.90
53520;DHT22;39397;53.204;5.778;2023-08-17T05:43:25;15.80;99.90
53520;DHT22;39397;53.204;5.778;2023-08-17T05:45:51;15.80;99.90
53520;DHT22;39397;53.204;5.778;2023-08-17T05:48:19;15.90;99.90
53520;DHT22;39397;53.204;5.778;2023-08-17T05:50:46;15.90;99.90
53520;DHT22;39397;53.204;5.778;2023-08-17T05:53:12;16.00;99.90
53520;DHT22;39397;53.204;5.778;2023-08-17T05:55:38;16.00;99.90
53520;DHT22;39397;53.204;5.778;2023-08-17T05:58:03;16.10;99.90
53520;DHT22;39397;53.204;5.778;2023-08-17T06:00:29;16.10;99.90
53520;DHT22;39397;53.204;5.778;2023-08-17T06:02:55;16.20;99.90
53520;DHT22;39397;53.204;5.778;2023-08-17T06:05:27;16.30;99.90
53520;DHT22;39397;53.204;5.778;2023-08-17T06:07:54;16.30;99.90
53520;DHT22;39397;53.204;5.778;2023-08-17T06:10:20;16.40;99.90
53520;DHT22;39397;53.204;5.778;2023-08-17T06:12:46;16.50;99.90
53520;DHT22;39397;53.204;5.778;2023-08-17T06:15:13;16.60;99.90
53520;DHT22;39397;53.204;5.778;2023-08-17T06:17:39;16.70;99.90
53520;DHT22;39397;53.204;5.778;2023-08-17T06:20:05;16.70;99.90
53520;DHT22;39397;53.204;5.778;2023-08-17T06:22:32;16.80;99.90
53520;DHT22;39397;53.204;5.778;2023-08-17T06:24:58;16.90;99.90
53520;DHT22;39397;53.204;5.778;2023-08-17T06:27:24;17.00;99.90
53520;DHT22;39397;53.204;5.778;2023-08-17T06:29:49;17.00;99.90
53520;DHT22;39397;53.204;5.778;2023-08-17T06:32:15;17.20;99.90
53520;DHT22;39397;53.204;5.778;2023-08-17T06:34:41;17.40;99.90
53520;DHT22;39397;53.204;5.778;2023-08-17T06:37:08;17.40;99.90
53520;DHT22;39397;53.204;5.778;2023-08-17T06:39:33;16.00;99.90
53520;DHT22;39397;53.204;5.778;2023-08-17T06:41:59;17.60;99.90
53520;DHT22;39397;53.204;5.778;2023-08-17T06:44:25;17.60;99.90
53520;DHT22;39397;53.204;5.778;2023-08-17T06:46:50;17.60;99.90
53520;DHT22;39397;53.204;5.778;2023-08-17T06:49:16;17.60;99.90
53520;DHT22;39397;53.204;5.778;2023-08-17T06:51:43;17.70;99.90
53520;DHT22;39397;53.204;5.778;2023-08-17T06:54:09;17.70;99.90
53520;DHT22;39397;53.204;5.778;2023-08-17T06:56:35;17.70;99.90
53520;DHT22;39397;53.204;5.778;2023-08-17T06:59:01;17.80;99.90
53520;DHT22;39397;53.204;5.778;2023-08-17T07:01:28;17.90;99.90
53520;DHT22;39397;53.204;5.778;2023-08-17T07:03:54;18.00;99.90
53520;DHT22;39397;53.204;5.778;2023-08-17T07:06:19;18.30;99.90
53520;DHT22;39397;53.204;5.778;2023-08-17T07:08:45;18.50;99.90
53520;DHT22;39397;53.204;5.778;2023-08-17T07:11:11;18.60;99.90
53520;DHT22;39397;53.204;5.778;2023-08-17T07:13:37;18.80;99.90
53520;DHT22;39397;53.204;5.778;2023-08-17T07:16:03;19.00;99.90
53520;DHT22;39397;53.204;5.778;2023-08-17T07:18:28;19.30;99.90
53520;DHT22;39397;53.204;5.778;2023-08-17T07:20:54;19.50;99.90
53520;DHT22;39397;53.204;5.778;2023-08-17T07:23:20;19.60;99.90
53520;DHT22;39397;53.204;5.778;2023-08-17T07:25:45;19.70;99.90
53520;DHT22;39397;53.204;5.778;2023-08-17T07:28:11;19.70;99.90
53520;DHT22;39397;53.204;5.778;2023-08-17T07:30:37;19.70;99.90
53520;DHT22;39397;53.204;5.778;2023-08-17T07:33:02;19.60;99.90
53520;DHT22;39397;53.204;5.778;2023-08-17T07:35:28;19.70;99.90
53520;DHT22;39397;53.204;5.778;2023-08-17T07:37:54;19.60;99.90
53520;DHT22;39397;53.204;5.778;2023-08-17T07:40:19;19.60;99.90
53520;DHT22;39397;53.204;5.778;2023-08-17T07:42:46;19.70;99.90
53520;DHT22;39397;53.204;5.778;2023-08-17T07:45:12;19.80;99.90
53520;DHT22;39397;53.204;5.778;2023-08-17T07:47:38;22.00;99.90
53520;DHT22;39397;53.204;5.778;2023-08-17T07:50:05;20.00;99.90
53520;DHT22;39397;53.204;5.778;2023-08-17T07:52:31;20.20;99.90
53520;DHT22;39397;53.204;5.778;2023-08-17T07:54:56;20.30;99.90
53520;DHT22;39397;53.204;5.778;2023-08-17T07:57:22;20.50;99.90
53520;DHT22;39397;53.204;5.778;2023-08-17T07:59:48;20.70;99.90
53520;DHT22;39397;53.204;5.778;2023-08-17T08:02:13;20.70;99.90
53520;DHT22;39397;53.204;5.778;2023-08-17T08:04:39;20.80;99.90
53520;DHT22;39397;53.204;5.778;2023-08-17T08:07:06;20.80;99.90
53520;DHT22;39397;53.204;5.778;2023-08-17T08:09:31;20.70;99.90
53520;DHT22;39397;53.204;5.778;2023-08-17T08:11:57;20.70;99.90
53520;DHT22;39397;53.204;5.778;2023-08-17T08:14:23;19.50;99.90
53520;DHT22;39397;53.204;5.778;2023-08-17T08:16:48;20.80;99.90
53520;DHT22;39397;53.204;5.778;2023-08-17T08:19:14;20.80;99.90
53520;DHT22;39397;53.204;5.778;2023-08-17T08:21:40;20.70;99.90
53520;DHT22;39397;53.204;5.778;2023-08-17T08:24:06;20.50;99.90
53520;DHT22;39397;53.204;5.778;2023-08-17T08:26:31;20.50;99.90
53520;DHT22;39397;53.204;5.778;2023-08-17T08:28:57;20.40;99.90
53520;DHT22;39397;53.204;5.778;2023-08-17T08:31:23;20.50;99.90
53520;DHT22;39397;53.204;5.778;2023-08-17T08:33:49;20.50;99.90
53520;DHT22;39397;53.204;5.778;2023-08-17T08:36:14;20.50;99.90
53520;DHT22;39397;53.204;5.778;2023-08-17T08:38:40;20.30;99.90
53520;DHT22;39397;53.204;5.778;2023-08-17T08:41:08;20.20;99.90
53520;DHT22;39397;53.204;5.778;2023-08-17T08:43:35;20.30;99.90
53520;DHT22;39397;53.204;5.778;2023-08-17T08:46:00;20.40;99.90
53520;DHT22;39397;53.204;5.778;2023-08-17T08:48:27;20.60;99.90
53520;DHT22;39397;53.204;5.778;2023-08-17T08:50:55;20.70;99.90
53520;DHT22;39397;53.204;5.778;2023-08-17T08:53:27;20.90;99.90
53520;DHT22;39397;53.204;5.778;2023-08-17T08:56:00;21.30;99.90
53520;DHT22;39397;53.204;5.778;2023-08-17T08:58:27;20.90;99.90
53520;DHT22;39397;53.204;5.778;2023-08-17T09:00:54;20.70;99.90
53520;DHT22;39397;53.204;5.778;2023-08-17T09:03:20;20.70;99.90
53520;DHT22;39397;53.204;5.778;2023-08-17T09:05:48;20.70;99.90
53520;DHT22;39397;53.204;5.778;2023-08-17T09:08:18;20.70;99.90
53520;DHT22;39397;53.204;5.778;2023-08-17T09:10:44;21.60;99.90
53520;DHT22;39397;53.204;5.778;2023-08-17T09:13:10;20.90;99.90
53520;DHT22;39397;53.204;5.778;2023-08-17T09:15:36;21.20;99.90
53520;DHT22;39397;53.204;5.778;2023-08-17T09:18:03;21.50;99.90
53520;DHT22;39397;53.204;5.778;2023-08-17T09:20:41;21.60;99.90
53520;DHT22;39397;53.204;5.778;2023-08-17T09:25:56;21.60;99.90
53520;DHT22;39397;53.204;5.778;2023-08-17T09:28:24;21.70;99.90
53520;DHT22;39397;53.204;5.778;2023-08-17T09:31:02;21.50;99.90
53520;DHT22;39397;53.204;5.778;2023-08-17T09:33:31;21.40;99.90
53520;DHT22;39397;53.204;5.778;2023-08-17T09:35:59;21.50;99.90
53520;DHT22;39397;53.204;5.778;2023-08-17T09:38:26;21.50;99.90
53520;DHT22;39397;53.204;5.778;2023-08-17T09:40:52;21.60;99.90
53520;DHT22;39397;53.204;5.778;2023-08-17T09:43:19;21.70;99.90
53520;DHT22;39397;53.204;5.778;2023-08-17T09:45:47;21.50;99.90
53520;DHT22;39397;53.204;5.778;2023-08-17T09:48:19;21.60;99.90
53520;DHT22;39397;53.204;5.778;2023-08-17T09:50:46;21.50;99.90
53520;DHT22;39397;53.204;5.778;2023-08-17T09:53:16;21.40;99.90
53520;DHT22;39397;53.204;5.778;2023-08-17T09:55:43;21.60;99.90
53520;DHT22;39397;53.204;5.778;2023-08-17T09:58:09;21.60;99.90
53520;DHT22;39397;53.204;5.778;2023-08-17T10:00:36;21.60;99.90
53520;DHT22;39397;53.204;5.778;2023-08-17T10:03:03;21.60;99.90
53520;DHT22;39397;53.204;5.778;2023-08-17T10:05:35;21.60;99.90
53520;DHT22;39397;53.204;5.778;2023-08-17T10:08:06;21.70;99.90
53520;DHT22;39397;53.204;5.778;2023-08-17T10:10:35;21.50;99.90
53520;DHT22;39397;53.204;5.778;2023-08-17T10:15:36;21.50;99.90
53520;DHT22;39397;53.204;5.778;2023-08-17T10:18:17;21.70;99.90
53520;DHT22;39397;53.204;5.778;2023-08-17T10:21:11;21.70;99.90
53520;DHT22;39397;53.204;5.778;2023-08-17T10:23:38;21.70;99.90
53520;DHT22;39397;53.204;5.778;2023-08-17T10:26:05;21.80;99.90
53520;DHT22;39397;53.204;5.778;2023-08-17T10:28:34;21.80;99.90
53520;DHT22;39397;53.204;5.778;2023-08-17T10:31:00;22.00;99.90
53520;DHT22;39397;53.204;5.778;2023-08-17T10:33:27;21.80;99.90
53520;DHT22;39397;53.204;5.778;2023-08-17T10:35:53;21.80;99.90
53520;DHT22;39397;53.204;5.778;2023-08-17T10:38:19;21.90;99.90
53520;DHT22;39397;53.204;5.778;2023-08-17T10:40:45;22.00;99.90
53520;DHT22;39397;53.204;5.778;2023-08-17T10:43:34;21.80;99.90
53520;DHT22;39397;53.204;5.778;2023-08-17T10:46:15;21.80;99.90
53520;DHT22;39397;53.204;5.778;2023-08-17T10:48:44;21.80;99.90
53520;DHT22;39397;53.204;5.778;2023-08-17T10:51:10;21.80;99.90
53520;DHT22;39397;53.204;5.778;2023-08-17T10:53:40;21.90;99.90
53520;DHT22;39397;53.204;5.778;2023-08-17T10:56:12;21.80;99.90
53520;DHT22;39397;53.204;5.778;2023-08-17T10:58:39;21.90;99.90
53520;DHT22;39397;53.204;5.778;2023-08-17T11:01:04;22.00;99.90
53520;DHT22;39397;53.204;5.778;2023-08-17T11:03:30;22.50;99.90
53520;DHT22;39397;53.204;5.778;2023-08-17T11:05:56;22.70;99.90
53520;DHT22;39397;53.204;5.778;2023-08-17T11:08:38;22.90;99.90
53520;DHT22;39397;53.204;5.778;2023-08-17T11:11:15;23.30;99.90
53520;DHT22;39397;53.204;5.778;2023-08-17T11:13:45;23.30;99.90
53520;DHT22;39397;53.204;5.778;2023-08-17T11:16:13;23.30;99.90
53520;DHT22;39397;53.204;5.778;2023-08-17T11:18:39;23.30;99.90
53520;DHT22;39397;53.204;5.778;2023-08-17T11:21:07;23.10;99.90
53520;DHT22;39397;53.204;5.778;2023-08-17T11:23:35;23.50;99.90
53520;DHT22;39397;53.204;5.778;2023-08-17T11:26:01;23.50;99.90
53520;DHT22;39397;53.204;5.778;2023-08-17T11:28:29;23.40;99.90
53520;DHT22;39397;53.204;5.778;2023-08-17T11:31:09;23.10;99.90
53520;DHT22;39397;53.204;5.778;2023-08-17T11:33:37;22.90;99.90
53520;DHT22;39397;53.204;5.778;2023-08-17T11:36:05;22.70;99.90
53520;DHT22;39397;53.204;5.778;2023-08-17T11:38:36;22.90;99.90
53520;DHT22;39397;53.204;5.778;2023-08-17T11:41:03;23.30;99.90
53520;DHT22;39397;53.204;5.778;2023-08-17T11:43:31;23.30;99.90
53520;DHT22;39397;53.204;5.778;2023-08-17T11:45:57;23.50;99.90
53520;DHT22;39397;53.204;5.778;2023-08-17T11:48:24;23.70;99.90
53520;DHT22;39397;53.204;5.778;2023-08-17T11:50:51;23.80;99.90
53520;DHT22;39397;53.204;5.778;2023-08-17T11:53:17;23.80;99.90
53520;DHT22;39397;53.204;5.778;2023-08-17T11:55:43;23.70;99.90
53520;DHT22;39397;53.204;5.778;2023-08-17T11:58:09;23.50;99.90
53520;DHT22;39397;53.204;5.778;2023-08-17T12:00:43;23.20;99.90
53520;DHT22;39397;53.204;5.778;2023-08-17T12:03:16;23.10;99.90
53520;DHT22;39397;53.204;5.778;2023-08-17T12:05:43;23.10;99.90
53520;DHT22;39397;53.204;5.778;2023-08-17T12:08:09;23.00;99.90
53520;DHT22;39397;53.204;5.778;2023-08-17T12:10:37;22.90;99.90
53520;DHT22;39397;53.204;5.778;2023-08-17T12:13:03;22.90;99.90
53520;DHT22;39397;53.204;5.778;2023-08-17T12:15:35;22.80;99.90
53520;DHT22;39397;53.204;5.778;2023-08-17T12:18:03;22.80;99.90
53520;DHT22;39397;53.204;5.778;2023-08-17T12:20:29;22.70;99.90
53520;DHT22;39397;53.204;5.778;2023-08-17T12:22:57;22.70;99.90
53520;DHT22;39397;53.204;5.778;2023-08-17T12:25:25;22.80;99.90
53520;DHT22;39397;53.204;5.778;2023-08-17T12:27:51;23.00;99.90
53520;DHT22;39397;53.204;5.778;2023-08-17T12:32:51;23.10;99.90
53520;DHT22;39397;53.204;5.778;2023-08-17T12:35:17;23.10;99.90
53520;DHT22;39397;53.204;5.778;2023-08-17T12:37:44;22.90;99.90
53520;DHT22;39397;53.204;5.778;2023-08-17T12:40:10;22.70;99.90
53520;DHT22;39397;53.204;5.778;2023-08-17T12:42:36;22.70;99.90
53520;DHT22;39397;53.204;5.778;2023-08-17T12:45:02;22.60;99.90
53520;DHT22;39397;53.204;5.778;2023-08-17T12:47:27;22.60;99.90
53520;DHT22;39397;53.204;5.778;2023-08-17T12:49:53;22.60;99.90
53520;DHT22;39397;53.204;5.778;2023-08-17T12:52:19;22.20;99.90
53520;DHT22;39397;53.204;5.778;2023-08-17T12:54:44;22.50;99.90
53520;DHT22;39397;53.204;5.778;2023-08-17T12:57:10;22.50;99.90
53520;DHT22;39397;53.204;5.778;2023-08-17T12:59:36;22.50;99.90
53520;DHT22;39397;53.204;5.778;2023-08-17T13:02:01;22.60;99.90
53520;DHT22;39397;53.204;5.778;2023-08-17T13:04:27;22.30;99.90
53520;DHT22;39397;53.204;5.778;2023-08-17T13:06:53;22.40;99.90
53520;DHT22;39397;53.204;5.778;2023-08-17T13:09:20;22.30;99.90
53520;DHT22;39397;53.204;5.778;2023-08-17T13:11:46;22.40;99.90
53520;DHT22;39397;53.204;5.778;2023-08-17T13:14:14;22.30;99.90
53520;DHT22;39397;53.204;5.778;2023-08-17T13:16:39;22.20;99.90
53520;DHT22;39397;53.204;5.778;2023-08-17T13:19:05;22.10;99.90
53520;DHT22;39397;53.204;5.778;2023-08-17T13:21:31;22.30;99.90
53520;DHT22;39397;53.204;5.778;2023-08-17T13:23:56;22.20;99.90
53520;DHT22;39397;53.204;5.778;2023-08-17T13:26:23;22.10;99.90
53520;DHT22;39397;53.204;5.778;2023-08-17T13:28:48;22.00;99.90
53520;DHT22;39397;53.204;5.778;2023-08-17T13:31:14;22.00;99.90
53520;DHT22;39397;53.204;5.778;2023-08-17T13:33:40;22.80;99.90
53520;DHT22;39397;53.204;5.778;2023-08-17T13:36:06;22.00;99.90
53520;DHT22;39397;53.204;5.778;2023-08-17T13:38:31;21.90;99.90
53520;DHT22;39397;53.204;5.778;2023-08-17T13:40:57;21.80;99.90
53520;DHT22;39397;53.204;5.778;2023-08-17T13:43:23;21.90;99.90
53520;DHT22;39397;53.204;5.778;2023-08-17T13:45:49;21.80;99.90
53520;DHT22;39397;53.204;5.778;2023-08-17T13:48:15;21.80;99.90
53520;DHT22;39397;53.204;5.778;2023-08-17T13:50:40;21.90;99.90
53520;DHT22;39397;53.204;5.778;2023-08-17T13:53:06;21.90;99.90
53520;DHT22;39397;53.204;5.778;2023-08-17T13:55:32;22.10;99.90
53520;DHT22;39397;53.204;5.778;2023-08-17T13:57:58;22.00;99.90
53520;DHT22;39397;53.204;5.778;2023-08-17T14:00:25;22.10;99.90
53520;DHT22;39397;53.204;5.778;2023-08-17T14:02:52;22.20;99.90
53520;DHT22;39397;53.204;5.778;2023-08-17T14:05:18;22.50;99.90
53520;DHT22;39397;53.204;5.778;2023-08-17T14:07:43;22.20;99.90
53520;DHT22;39397;53.204;5.778;2023-08-17T14:10:09;22.10;99.90
53520;DHT22;39397;53.204;5.778;2023-08-17T14:12:35;21.90;99.90
53520;DHT22;39397;53.204;5.778;2023-08-17T14:15:01;21.90;99.90
53520;DHT22;39397;53.204;5.778;2023-08-17T14:17:27;21.60;99.90
53520;DHT22;39397;53.204;5.778;2023-08-17T14:19:53;21.50;99.90
53520;DHT22;39397;53.204;5.778;2023-08-17T14:22:20;21.40;99.90
53520;DHT22;39397;53.204;5.778;2023-08-17T14:24:45;21.20;99.90
53520;DHT22;39397;53.204;5.778;2023-08-17T14:27:11;21.40;99.90
53520;DHT22;39397;53.204;5.778;2023-08-17T14:29:37;21.20;99.90
53520;DHT22;39397;53.204;5.778;2023-08-17T14:32:03;21.10;99.90
53520;DHT22;39397;53.204;5.778;2023-08-17T14:34:29;21.00;99.90
53520;DHT22;39397;53.204;5.778;2023-08-17T14:36:55;20.80;99.90
53520;DHT22;39397;53.204;5.778;2023-08-17T14:39:20;20.80;99.90
53520;DHT22;39397;53.204;5.778;2023-08-17T14:41:46;20.90;99.90
53520;DHT22;39397;53.204;5.778;2023-08-17T14:44:12;20.50;99.90
53520;DHT22;39397;53.204;5.778;2023-08-17T14:46:38;20.80;99.90
53520;DHT22;39397;53.204;5.778;2023-08-17T14:49:07;20.60;99.90
53520;DHT22;39397;53.204;5.778;2023-08-17T14:51:37;20.60;99.90
53520;DHT22;39397;53.204;5.778;2023-08-17T14:54:05;20.50;99.90
53520;DHT22;39397;53.204;5.778;2023-08-17T14:56:30;20.70;99.90
53520;DHT22;39397;53.204;5.778;2023-08-17T14:58:56;20.60;99.90
53520;DHT22;39397;53.204;5.778;2023-08-17T15:01:22;20.60;99.90
53520;DHT22;39397;53.204;5.778;2023-08-17T15:03:48;20.70;99.90
53520;DHT22;39397;53.204;5.778;2023-08-17T15:06:13;20.70;99.90
53520;DHT22;39397;53.204;5.778;2023-08-17T15:08:39;20.80;99.90
53520;DHT22;39397;53.204;5.778;2023-08-17T15:11:05;20.90;99.90
53520;DHT22;39397;53.204;5.778;2023-08-17T15:13:30;20.80;99.90
53520;DHT22;39397;53.204;5.778;2023-08-17T15:15:56;20.70;99.90
53520;DHT22;39397;53.204;5.778;2023-08-17T15:18:22;20.70;99.90
53520;DHT22;39397;53.204;5.778;2023-08-17T15:20:48;20.60;99.90
53520;DHT22;39397;53.204;5.778;2023-08-17T15:23:13;20.70;99.90
53520;DHT22;39397;53.204;5.778;2023-08-17T15:25:39;20.80;99.90
53520;DHT22;39397;53.204;5.778;2023-08-17T15:28:05;20.90;99.90
53520;DHT22;39397;53.204;5.778;2023-08-17T15:30:30;20.80;99.90
53520;DHT22;39397;53.204;5.778;2023-08-17T15:32:56;20.80;99.90
53520;DHT22;39397;53.204;5.778;2023-08-17T15:35:22;20.80;99.90
53520;DHT22;39397;53.204;5.778;2023-08-17T15:37:47;20.90;99.90
53520;DHT22;39397;53.204;5.778;2023-08-17T15:40:13;20.90;99.90